createdAt,value
2023-01-02T00:02:49.103Z,17.17
2023-01-02T00:05:55.310Z,15.83
2023-01-02T00:09:03.077Z,15.03
2023-01-02T00:12:09.541Z,14.90
2023-01-02T00:15:16.121Z,12.37
2023-01-02T00:18:22.534Z,9.43
2023-01-02T00:21:28.739Z,10.40
2023-01-02T00:24:36.608Z,11.83
2023-01-02T00:27:43.215Z,10.50
2023-01-02T00:30:49.825Z,9.57
2023-01-02T00:33:56.272Z,8.17
2023-01-02T00:37:02.600Z,8.13
2023-01-02T00:40:14.116Z,8.53
2023-01-02T00:43:20.393Z,12.67
2023-01-02T00:46:26.779Z,10.83
2023-01-02T00:49:33.127Z,11.17
2023-01-02T00:52:39.464Z,11.43
2023-01-02T00:55:47.471Z,13.13
2023-01-02T00:58:53.531Z,12.17
2023-01-02T01:02:00.107Z,10.20
2023-01-02T01:05:07.537Z,11.47
2023-01-02T01:08:13.826Z,12.87
2023-01-02T01:11:21.419Z,10.00
2023-01-02T01:14:28.051Z,14.70
2023-01-02T01:17:34.701Z,16.73
2023-01-02T01:20:40.937Z,13.20
2023-01-02T01:23:51.615Z,13.90
2023-01-02T01:26:59.115Z,11.73
2023-01-02T01:30:05.582Z,10.13
2023-01-02T01:33:11.756Z,13.23
2023-01-02T01:36:20.832Z,11.17
2023-01-02T01:39:27.132Z,13.60
2023-01-02T01:42:35.911Z,13.70
2023-01-02T01:45:45.003Z,11.67
2023-01-02T01:48:58.975Z,9.73
2023-01-02T01:52:08.222Z,15.30
2023-01-02T01:55:20.071Z,11.77
2023-01-02T01:58:31.761Z,11.43
2023-01-02T02:01:38.776Z,8.53
2023-01-02T02:04:46.631Z,9.00
2023-01-02T02:08:04.099Z,11.93
2023-01-02T02:11:11.402Z,12.07
2023-01-02T02:14:19.479Z,10.23
2023-01-02T02:17:36.407Z,12.33
2023-01-02T02:20:51.416Z,14.27
2023-01-02T02:24:30.725Z,13.07
2023-01-02T02:28:03.170Z,12.27
2023-01-02T02:31:15.974Z,12.30
2023-01-02T02:34:28.433Z,13.53
2023-01-02T02:37:41.625Z,10.13
2023-01-02T02:40:57.846Z,10.83
2023-01-02T02:44:13.733Z,7.87
2023-01-02T02:47:29.668Z,8.20
2023-01-02T02:50:40.551Z,9.43
2023-01-02T02:53:52.379Z,9.30
2023-01-02T02:57:00.961Z,7.93
2023-01-02T03:00:10.228Z,10.47
2023-01-02T03:03:20.355Z,11.27
2023-01-02T03:06:45.924Z,10.67
2023-01-02T03:10:00.765Z,11.50
2023-01-02T03:13:15.407Z,12.77
2023-01-02T03:16:26.823Z,11.77
2023-01-02T03:19:41.714Z,12.27
2023-01-02T03:22:53.271Z,12.63
2023-01-02T03:26:00.120Z,14.63
2023-01-02T03:29:11.356Z,14.20
2023-01-02T03:32:24.704Z,14.90
2023-01-02T03:35:37.585Z,14.50
2023-01-02T03:38:50.059Z,13.63
2023-01-02T03:42:00.270Z,14.70
2023-01-02T03:45:10.920Z,13.90
2023-01-02T03:48:25.108Z,10.80
2023-01-02T03:51:33.620Z,14.53
2023-01-02T03:54:39.887Z,20.10
2023-01-02T03:57:57.491Z,16.47
2023-01-02T04:01:08.009Z,27.77
2023-01-02T04:04:19.763Z,38.10
2023-01-02T04:07:31.814Z,27.93
2023-01-02T04:10:39.956Z,23.97
2023-01-02T04:13:52.327Z,25.93
2023-01-02T04:17:00.956Z,23.07
2023-01-02T04:20:12.146Z,20.73
2023-01-02T04:23:23.306Z,18.50
2023-01-02T04:26:35.133Z,15.00
2023-01-02T04:29:42.173Z,12.93
2023-01-02T04:32:49.389Z,14.80
2023-01-02T04:35:55.869Z,14.90
2023-01-02T04:39:03.591Z,14.33
2023-01-02T04:42:09.726Z,12.90
2023-01-02T04:45:16.252Z,14.70
2023-01-02T04:48:22.671Z,16.33
2023-01-02T04:51:29.012Z,24.97
2023-01-02T04:54:36.674Z,16.80
2023-01-02T04:57:43.229Z,20.60
2023-01-02T05:00:49.215Z,21.10
2023-01-02T05:03:55.444Z,20.47
2023-01-02T05:07:01.601Z,18.50
2023-01-02T05:10:10.423Z,17.93
2023-01-02T05:13:16.840Z,19.70
2023-01-02T05:16:22.909Z,20.73
2023-01-02T05:19:29.056Z,36.07
2023-01-02T05:22:53.183Z,25.77
2023-01-02T05:26:00.932Z,24.80
2023-01-02T05:29:07.140Z,34.77
2023-01-02T05:32:13.471Z,34.57
2023-01-02T05:35:20.178Z,26.30
2023-01-02T05:38:26.582Z,18.47
2023-01-02T05:41:34.232Z,16.07
2023-01-02T05:44:40.846Z,14.90
2023-01-02T05:47:47.084Z,14.70
2023-01-02T05:50:53.864Z,15.03
2023-01-02T05:54:00.211Z,17.37
2023-01-02T05:57:07.980Z,16.87
2023-01-02T06:00:15.576Z,31.43
2023-01-02T06:03:22.087Z,27.40
2023-01-02T06:06:36.575Z,28.07
2023-01-02T06:09:42.952Z,36.53
2023-01-02T06:12:50.646Z,36.70
2023-01-02T06:15:56.995Z,41.47
2023-01-02T06:19:03.265Z,37.53
2023-01-02T06:22:09.828Z,31.83
2023-01-02T06:25:16.698Z,29.53
2023-01-02T06:28:24.450Z,23.00
2023-01-02T06:31:33.614Z,23.60
2023-01-02T06:34:40.233Z,19.27
2023-01-02T06:37:46.724Z,23.47
2023-01-02T06:40:57.349Z,21.13
2023-01-02T06:44:05.165Z,17.93
2023-01-02T06:47:11.643Z,14.40
2023-01-02T06:50:19.764Z,20.83
2023-01-02T06:53:27.770Z,18.00
2023-01-02T06:56:34.340Z,16.67
2023-01-02T06:59:42.012Z,13.60
2023-01-02T07:02:48.386Z,13.87
2023-01-02T07:05:55.037Z,14.57
2023-01-02T07:09:01.463Z,32.17
2023-01-02T07:12:07.897Z,32.37
2023-01-02T07:15:15.427Z,33.17
2023-01-02T07:18:21.928Z,27.80
2023-01-02T07:21:28.134Z,34.63
2023-01-02T07:24:34.623Z,34.33
2023-01-02T07:27:40.844Z,46.17
2023-01-02T07:30:48.259Z,39.53
2023-01-02T07:33:54.401Z,30.33
2023-01-02T07:37:00.684Z,27.67
2023-01-02T07:40:07.790Z,22.10
2023-01-02T07:43:13.764Z,24.73
2023-01-02T07:46:22.003Z,27.23
2023-01-02T07:49:28.159Z,24.90
2023-01-02T07:52:34.572Z,26.30
2023-01-02T07:55:40.772Z,25.17
2023-01-02T07:58:47.303Z,26.87
2023-01-02T08:01:55.335Z,31.20
2023-01-02T08:05:01.822Z,27.37
2023-01-02T08:08:09.176Z,13.77
2023-01-02T08:11:17.755Z,10.60
2023-01-02T08:14:24.108Z,9.20
2023-01-02T08:17:31.983Z,7.67
2023-01-02T08:20:38.175Z,12.77
2023-01-02T08:23:44.544Z,15.43
2023-01-02T08:26:50.898Z,16.67
2023-01-02T08:29:57.002Z,26.03
2023-01-02T08:33:04.643Z,28.40
2023-01-02T08:36:11.604Z,24.10
2023-01-02T08:39:18.039Z,24.90
2023-01-02T08:42:24.096Z,23.13
2023-01-02T08:45:30.753Z,21.73
2023-01-02T08:48:38.407Z,19.67
2023-01-02T08:51:45.041Z,18.00
2023-01-02T08:54:51.245Z,21.53
2023-01-02T08:57:57.592Z,20.57
2023-01-02T09:01:03.955Z,15.30
2023-01-02T09:04:13.320Z,19.17
2023-01-02T09:07:19.852Z,16.00
2023-01-02T09:10:26.439Z,15.43
2023-01-02T09:13:32.991Z,14.03
2023-01-02T09:16:39.416Z,17.13
2023-01-02T09:19:47.274Z,15.67
2023-01-02T09:22:53.840Z,16.03
2023-01-02T09:26:00.858Z,14.63
2023-01-02T09:29:07.055Z,11.67
2023-01-02T09:32:13.633Z,14.47
2023-01-02T09:35:21.353Z,13.87
2023-01-02T09:38:27.747Z,12.83
2023-01-02T09:41:37.323Z,14.10
2023-01-02T09:44:47.672Z,13.87
2023-01-02T09:47:57.222Z,12.57
2023-01-02T09:51:07.887Z,14.53
2023-01-02T09:54:21.167Z,15.57
2023-01-02T09:57:41.533Z,10.67
2023-01-02T10:00:51.446Z,11.23
2023-01-02T10:04:07.567Z,9.87
2023-01-02T10:07:24.651Z,11.63
2023-01-02T10:10:38.594Z,11.50
2023-01-02T10:14:17.928Z,12.93
2023-01-02T10:17:18.262Z,11.33
2023-01-02T10:20:28.815Z,10.33
2023-01-02T10:23:40.904Z,11.53
2023-01-02T10:26:53.468Z,12.73
2023-01-02T10:30:08.299Z,13.37
2023-01-02T10:33:20.774Z,15.27
2023-01-02T10:36:28.959Z,13.10
2023-01-02T10:39:36.769Z,13.47
2023-01-02T10:42:43.422Z,15.57
2023-01-02T10:45:49.863Z,33.13
2023-01-02T10:48:56.520Z,16.93
2023-01-02T10:52:07.726Z,14.93
2023-01-02T10:55:15.371Z,23.90
2023-01-02T10:58:24.304Z,17.10
2023-01-02T11:01:31.330Z,14.07
2023-01-02T11:04:44.325Z,11.77
2023-01-02T11:07:53.349Z,12.87
2023-01-02T11:11:01.855Z,13.33
2023-01-02T11:14:11.616Z,10.03
2023-01-02T11:17:20.083Z,12.27
2023-01-02T11:20:29.362Z,8.07
2023-01-02T11:23:39.252Z,9.53
2023-01-02T11:26:48.934Z,10.43
2023-01-02T11:29:55.619Z,7.40
2023-01-02T11:33:09.864Z,10.00
2023-01-02T11:36:18.677Z,5.80
2023-01-02T11:39:27.141Z,6.80
2023-01-02T11:42:58.696Z,6.67
2023-01-02T11:46:10.726Z,6.63
2023-01-02T11:49:20.970Z,6.37
2023-01-02T11:52:35.393Z,8.97
2023-01-02T11:55:47.652Z,8.40
2023-01-02T11:59:02.519Z,7.33
2023-01-02T12:02:16.905Z,7.67
2023-01-02T12:05:34.836Z,8.40
2023-01-02T12:09:02.024Z,7.90
2023-01-02T12:12:24.909Z,8.37
2023-01-02T12:16:10.758Z,11.23
2023-01-02T12:19:54.534Z,16.03
2023-01-02T12:23:25.897Z,20.33
2023-01-02T12:26:37.656Z,18.83
2023-01-02T12:29:57.586Z,15.30
2023-01-02T12:33:42.940Z,15.07
2023-01-02T12:36:57.091Z,15.53
2023-01-02T12:40:35.145Z,23.53
2023-01-02T12:43:58.417Z,18.13
2023-01-02T12:47:24.902Z,18.03
2023-01-02T12:50:51.270Z,41.10
2023-01-02T12:54:18.781Z,32.70
2023-01-02T12:57:34.504Z,33.60
2023-01-02T13:00:56.740Z,26.27
2023-01-02T13:04:15.670Z,13.43
2023-01-02T13:07:32.771Z,14.97
2023-01-02T13:10:40.280Z,18.07
2023-01-02T13:13:46.986Z,18.50
2023-01-02T13:17:04.682Z,18.73
2023-01-02T13:20:21.595Z,29.17
2023-01-02T13:23:34.601Z,22.90
2023-01-02T13:26:41.503Z,36.70
2023-01-02T13:29:47.814Z,46.90
2023-01-02T13:32:54.438Z,46.97
2023-01-02T13:36:04.095Z,34.97
2023-01-02T13:39:20.725Z,27.83
2023-01-02T13:42:46.633Z,33.00
2023-01-02T13:45:55.381Z,30.97
2023-01-02T13:49:03.586Z,28.63
2023-01-02T13:52:17.128Z,30.47
2023-01-02T13:55:32.473Z,30.67
2023-01-02T13:58:45.046Z,34.13
2023-01-02T14:02:17.285Z,25.17
2023-01-02T14:06:01.465Z,15.60
2023-01-02T14:09:11.038Z,68.63
2023-01-02T14:12:18.685Z,70.57
2023-01-02T14:15:27.072Z,66.63
2023-01-02T14:18:33.229Z,49.47
2023-01-02T14:21:44.119Z,101.20
2023-01-02T14:24:52.766Z,99.17
2023-01-02T14:28:03.383Z,54.37
2023-01-02T14:31:19.988Z,33.90
2023-01-02T14:34:27.271Z,37.40
2023-01-02T14:37:42.457Z,91.90
2023-01-02T14:40:49.339Z,30.33
2023-01-02T14:43:57.203Z,44.57
2023-01-02T14:47:04.385Z,55.77
2023-01-02T14:50:16.109Z,41.37
2023-01-02T14:53:26.476Z,42.47
2023-01-02T14:56:36.820Z,20.97
2023-01-02T14:59:47.502Z,27.20
2023-01-02T15:02:59.868Z,33.23
2023-01-02T15:06:13.663Z,22.80
2023-01-02T15:09:28.199Z,20.47
2023-01-02T15:13:01.053Z,17.67
2023-01-02T15:16:11.614Z,19.07
2023-01-02T15:19:22.661Z,19.20
2023-01-02T15:22:31.612Z,22.87
2023-01-02T15:25:41.116Z,18.00
2023-01-02T15:28:56.549Z,21.87
2023-01-02T15:32:06.099Z,16.30
2023-01-02T15:35:14.750Z,20.23
2023-01-02T15:38:22.769Z,18.97
2023-01-02T15:41:29.363Z,21.07
2023-01-02T15:44:54.305Z,15.97
2023-01-02T15:48:03.077Z,25.30
2023-01-02T15:51:16.596Z,29.20
2023-01-02T15:54:22.833Z,35.83
2023-01-02T15:57:32.035Z,39.63
2023-01-02T16:00:40.908Z,37.60
2023-01-02T16:04:02.126Z,29.67
2023-01-02T16:07:17.380Z,20.40
2023-01-02T16:10:27.037Z,23.07
2023-01-02T16:13:54.141Z,30.70
2023-01-02T16:17:04.678Z,48.13
2023-01-02T16:20:20.190Z,40.73
2023-01-02T16:23:26.971Z,35.73
2023-01-02T16:26:41.266Z,39.67
2023-01-02T16:29:47.689Z,29.33
2023-01-02T16:32:54.348Z,28.60
2023-01-02T16:36:10.570Z,21.33
2023-01-02T16:39:42.164Z,23.97
2023-01-02T16:42:48.406Z,36.67
2023-01-02T16:45:54.910Z,37.97
2023-01-02T16:49:05.184Z,33.77
2023-01-02T16:52:13.516Z,40.23
2023-01-02T16:55:22.625Z,32.53
2023-01-02T16:58:30.082Z,21.60
2023-01-02T17:01:36.907Z,12.60
2023-01-02T17:04:43.555Z,10.73
2023-01-02T17:07:50.947Z,14.43
2023-01-02T17:10:58.845Z,19.07
2023-01-02T17:14:05.184Z,25.47
2023-01-02T17:17:11.415Z,31.87
2023-01-02T17:20:18.216Z,37.43
2023-01-02T17:23:26.050Z,46.47
2023-01-02T17:26:32.072Z,44.03
2023-01-02T17:29:38.149Z,41.90
2023-01-02T17:32:45.484Z,35.60
2023-01-02T17:35:51.899Z,31.90
2023-01-02T17:38:59.400Z,31.33
2023-01-02T17:42:06.737Z,33.93
2023-01-02T17:45:15.376Z,32.47
2023-01-02T17:48:24.744Z,35.90
2023-01-02T17:51:31.864Z,33.30
2023-01-02T17:54:39.438Z,34.87
2023-01-02T17:57:45.718Z,34.73
2023-01-02T18:00:53.105Z,37.23
2023-01-02T18:03:59.409Z,46.37
2023-01-02T18:07:06.071Z,43.70
2023-01-02T18:10:19.454Z,41.87
2023-01-02T18:13:28.368Z,36.47
2023-01-02T18:16:40.372Z,27.53
2023-01-02T18:19:46.812Z,27.20
2023-01-02T18:22:53.648Z,22.47
2023-01-02T18:26:02.499Z,22.43
2023-01-02T18:29:22.492Z,24.27
2023-01-02T18:32:33.827Z,26.47
2023-01-02T18:35:57.483Z,29.43
2023-01-02T18:39:14.801Z,22.23
2023-01-02T18:42:26.657Z,22.37
2023-01-02T18:45:33.349Z,17.10
2023-01-02T18:48:40.735Z,15.03
2023-01-02T18:51:47.227Z,15.63
2023-01-02T18:54:59.825Z,19.10
2023-01-02T18:58:33.532Z,17.07
2023-01-02T19:01:44.908Z,18.23
2023-01-02T19:04:53.041Z,18.87
2023-01-02T19:08:14.642Z,25.43
2023-01-02T19:11:41.467Z,30.97
2023-01-02T19:14:51.887Z,33.87
2023-01-02T19:17:59.141Z,18.20
2023-01-02T19:21:17.142Z,28.23
2023-01-02T19:24:25.466Z,15.17
2023-01-02T19:27:37.512Z,16.87
2023-01-02T19:30:45.953Z,22.03
2023-01-02T19:33:57.433Z,26.20
2023-01-02T19:37:29.659Z,24.83
2023-01-02T19:40:36.072Z,21.20
2023-01-02T19:43:43.076Z,19.73
2023-01-02T19:46:50.504Z,19.27
2023-01-02T19:49:57.236Z,16.53
2023-01-02T19:53:03.743Z,19.10
2023-01-02T19:56:10.279Z,20.20
2023-01-02T19:59:16.494Z,17.67
2023-01-02T20:02:25.194Z,14.10
2023-01-02T20:05:31.599Z,9.23
2023-01-02T20:08:38.316Z,16.50
2023-01-02T20:12:07.435Z,16.53
2023-01-02T20:15:17.570Z,22.60
2023-01-02T20:18:25.084Z,14.37
2023-01-02T20:21:31.412Z,14.67
2023-01-02T20:24:37.607Z,13.80
2023-01-02T20:27:43.737Z,15.00
2023-01-02T20:30:51.519Z,17.73
2023-01-02T20:33:59.446Z,24.97
2023-01-02T20:37:05.990Z,22.80
2023-01-02T20:40:13.284Z,28.70
2023-01-02T20:43:19.702Z,20.73
2023-01-02T20:46:26.225Z,19.90
2023-01-02T20:49:33.959Z,20.50
2023-01-02T20:52:40.325Z,18.83
2023-01-02T20:55:46.617Z,18.37
2023-01-02T20:58:52.958Z,19.97
2023-01-02T21:01:59.292Z,15.90
2023-01-02T21:05:07.449Z,15.40
2023-01-02T21:08:13.629Z,14.40
2023-01-02T21:11:19.957Z,15.87
2023-01-02T21:14:26.073Z,11.93
2023-01-02T21:17:32.023Z,11.60
2023-01-02T21:20:45.830Z,21.80
2023-01-02T21:23:53.291Z,16.47
2023-01-02T21:26:59.796Z,20.63
2023-01-02T21:30:06.736Z,20.97
2023-01-02T21:33:13.996Z,16.53
2023-01-02T21:36:21.809Z,26.40
2023-01-02T21:39:28.332Z,29.30
2023-01-02T21:42:40.793Z,22.50
2023-01-02T21:45:50.997Z,17.87
2023-01-02T21:48:57.607Z,15.10
2023-01-02T21:52:05.659Z,12.83
2023-01-02T21:55:17.572Z,11.87
2023-01-02T21:58:23.712Z,12.20
2023-01-02T22:01:29.993Z,14.63
2023-01-02T22:04:37.072Z,14.37
2023-01-02T22:07:44.741Z,17.40
2023-01-02T22:10:51.315Z,20.33
2023-01-02T22:13:58.074Z,15.40
2023-01-02T22:17:06.707Z,11.07
2023-01-02T22:20:13.260Z,9.13
2023-01-02T22:23:21.077Z,13.93
2023-01-02T22:26:27.361Z,14.33
2023-01-02T22:30:09.695Z,12.93
2023-01-02T22:33:01.779Z,8.23
2023-01-02T22:36:08.940Z,19.97
2023-01-02T22:39:32.355Z,24.83
2023-01-02T22:43:06.126Z,15.20
2023-01-02T22:46:18.934Z,12.20
2023-01-02T22:49:29.159Z,12.67
2023-01-02T22:52:36.350Z,12.33
2023-01-02T22:55:44.100Z,10.17
2023-01-02T22:58:51.405Z,8.93
2023-01-02T23:01:57.827Z,11.80
2023-01-02T23:05:03.921Z,14.53
2023-01-02T23:08:10.162Z,24.33
2023-01-02T23:11:18.652Z,16.40
2023-01-02T23:14:25.069Z,16.80
2023-01-02T23:17:49.424Z,15.07
2023-01-02T23:20:55.703Z,21.67
2023-01-02T23:24:02.762Z,21.47
2023-01-02T23:27:12.214Z,18.17
2023-01-02T23:30:19.063Z,15.63
2023-01-02T23:33:25.279Z,14.23
2023-01-02T23:36:31.852Z,14.40
2023-01-02T23:39:38.412Z,14.83
2023-01-02T23:42:46.216Z,10.90
2023-01-02T23:45:52.854Z,9.43
2023-01-02T23:48:59.845Z,8.30
2023-01-02T23:52:06.537Z,8.00
2023-01-02T23:55:12.875Z,9.10
2023-01-02T23:58:20.850Z,9.87
